Time;durP1;ratioP1;P1;durP2;ratioP2;P2;SDS_P1;SDS_P2;PMS_P1;PMS_P2;Temp;Humidity;BMP_temperature;BMP_pressure;BME280_temperature;BME280_humidity;BME280_pressure;Samples;Min_cycle;Max_cycle;Signal;HPM_P1;HPM_P2
2023/04/04 00:00:02;;;;;;;;;;;;;;;9.69;100.00;96323.53;10321888;28;20634;-48
2023/04/04 00:05:01;;;;;;;7.90;5.47;;;;;;;9.75;100.00;96325.16;10312481;28;20450;-47
2023/04/04 00:10:00;;;;;;;;;;;;;;;9.62;100.00;96314.19;10308699;28;21705;-50
2023/04/04 00:15:00;;;;;;;7.00;5.05;;;;;;;9.48;100.00;96313.59;10307391;28;20613;-48
2023/04/04 00:19:59;;;;;;;6.28;4.72;;;;;;;9.42;100.00;96303.34;10307093;28;20607;-48
2023/04/04 00:24:58;;;;;;;7.43;5.35;;;;;;;9.53;100.00;96309.19;10315496;28;20112;-48
2023/04/04 00:29:57;;;;;;;8.30;5.25;;;;;;;9.59;100.00;96300.44;10309357;28;20136;-48
2023/04/04 00:34:56;;;;;;;8.05;5.65;;;;;;;9.60;100.00;96297.81;10329126;28;20040;-49
2023/04/04 00:39:55;;;;;;;8.27;6.40;;;;;;;9.60;100.00;96281.44;10338557;28;20140;-48
2023/04/04 00:44:54;;;;;;;9.38;6.60;;;;;;;9.64;100.00;96290.84;10310250;28;20024;-50
2023/04/04 00:49:53;;;;;;;8.25;5.95;;;;;;;9.62;100.00;96280.50;10339514;28;20037;-49
2023/04/04 00:54:54;;;;;;;7.05;5.65;;;;;;;9.60;100.00;96261.56;10336428;28;20075;-48
2023/04/04 00:59:54;;;;;;;7.10;4.90;;;;;;;9.68;100.00;96274.38;10309938;28;20112;-50
2023/04/04 01:04:54;;;;;;;7.70;5.30;;;;;;;9.61;100.00;96265.88;10340260;28;20125;-50
2023/04/04 01:09:56;;;;;;;6.75;4.57;;;;;;;8.79;100.00;96144.16;10341352;28;20068;-49
2023/04/04 01:14:56;;;;;;;6.03;4.10;;;;;;;9.55;100.00;96273.75;10315301;28;20482;-50
2023/04/04 01:20:01;;;;;;;;;;;;;;;9.60;100.00;96277.09;10337597;28;20069;-48
2023/04/04 01:25:01;;;;;;;5.18;3.88;;;;;;;9.56;100.00;96263.38;10339113;28;20012;-51
2023/04/04 01:30:02;;;;;;;5.07;3.70;;;;;;;9.38;100.00;96231.84;10336224;28;20068;-51
2023/04/04 01:35:12;;;;;;;4.55;3.42;;;;;;;9.38;100.00;96239.59;10359275;28;20112;-50
2023/04/04 01:40:17;;;;;;;6.47;3.78;;;;;;;9.59;100.00;96265.03;10352354;28;20068;-48
2023/04/04 01:45:16;;;;;;;4.13;3.38;;;;;;;9.57;100.00;96259.03;10354099;28;20116;-50
2023/04/04 01:50:15;;;;;;;4.80;4.10;;;;;;;9.61;100.00;96262.44;10359330;28;20114;-49
2023/04/04 01:55:14;;;;;;;6.40;3.67;;;;;;;9.58;100.00;96265.91;10350886;28;20033;-50
2023/04/04 02:00:14;;;;;;;;;;;;;;;9.55;100.00;96251.28;10351632;28;20131;-50
2023/04/04 02:05:13;;;;;;;3.92;3.00;;;;;;;9.59;100.00;96240.88;10358268;28;20048;-50
2023/04/04 02:10:12;;;;;;;5.32;3.35;;;;;;;9.41;100.00;96226.59;10357567;28;20112;-49
2023/04/04 02:15:11;;;;;;;;;;;;;;;9.47;100.00;96236.81;10352159;28;20132;-49
2023/04/04 02:20:10;;;;;;;5.38;3.03;;;;;;;9.45;100.00;96238.59;10358312;28;20470;-51
2023/04/04 02:25:09;;;;;;;4.20;3.22;;;;;;;9.48;100.00;96241.09;10353042;28;20552;-50
2023/04/04 02:30:09;;;;;;;4.25;3.10;;;;;;;9.41;100.00;96231.75;10332444;28;20041;-50
2023/04/04 02:35:08;;;;;;;4.57;3.50;;;;;;;9.35;100.00;96223.25;10326271;28;20116;-51
2023/04/04 02:40:08;;;;;;;4.63;3.60;;;;;;;9.46;100.00;96238.53;10332232;28;20542;-48
2023/04/04 02:45:07;;;;;;;3.72;3.15;;;;;;;9.47;100.00;96245.44;10332153;28;20142;-50
2023/04/04 02:50:08;;;;;;;7.03;3.70;;;;;;;9.42;100.00;96243.81;10325605;28;20079;-51
2023/04/04 02:55:07;;;;;;;5.15;3.42;;;;;;;9.42;100.00;96256.75;10331805;28;20073;-50
2023/04/04 03:00:06;;;;;;;;;;;;;;;9.46;100.00;96251.47;10324402;28;20060;-52
2023/04/04 03:05:05;;;;;;;5.80;3.97;;;;;;;9.44;100.00;96239.44;10325576;28;19952;-49
2023/04/04 03:10:05;;;;;;;5.18;4.13;;;;;;;9.46;100.00;96253.22;10333356;28;20065;-51
2023/04/04 03:15:06;;;;;;;6.57;4.63;;;;;;;9.43;100.00;96264.50;10327457;28;20073;-52
2023/04/04 03:20:05;;;;;;;5.80;4.22;;;;;;;9.46;100.00;96266.16;10325679;28;20475;-50
2023/04/04 03:25:04;;;;;;;;;;;;;;;9.42;100.00;96269.69;10333296;28;20068;-50
2023/04/04 03:30:04;;;;;;;4.93;3.72;;;;;;;9.43;100.00;96271.41;10326831;28;19925;-49
2023/04/04 03:35:03;;;;;;;5.78;3.58;;;;;;;9.43;100.00;96274.00;10319896;28;20120;-48
2023/04/04 03:40:02;;;;;;;;;;;;;;;9.46;100.00;96256.66;10328622;28;20526;-47
2023/04/04 03:45:01;;;;;;;8.02;4.88;;;;;;;9.44;100.00;96250.69;10319394;28;20375;-47
2023/04/04 03:50:01;;;;;;;8.15;5.32;;;;;;;9.39;100.00;96256.81;10321244;28;20067;-50
2023/04/04 03:55:00;;;;;;;6.95;4.70;;;;;;;9.34;100.00;96260.34;10327847;28;20116;-47
2023/04/04 03:59:59;;;;;;;4.75;4.00;;;;;;;9.40;100.00;96258.56;10319072;28;20156;-49
2023/04/04 04:04:57;;;;;;;8.05;4.95;;;;;;;9.43;100.00;96263.66;10323093;28;20029;-48
2023/04/04 04:09:57;;;;;;;6.50;4.53;;;;;;;9.44;100.00;96262.75;10322839;28;20124;-48
2023/04/04 04:14:56;;;;;;;5.32;3.70;;;;;;;9.42;100.00;96259.34;10281112;28;20618;-49
2023/04/04 04:19:55;;;;;;;10.60;7.93;;;;;;;9.44;100.00;96263.63;10331771;28;20516;-50
2023/04/04 04:24:54;;;;;;;;;;;;;;;9.47;100.00;96284.28;10305506;28;20566;-51
2023/04/04 04:29:53;;;;;;;9.77;6.05;;;;;;;8.89;100.00;96187.91;10344562;28;20386;-50
2023/04/04 04:34:51;;;;;;;16.80;11.18;;;;;;;9.48;100.00;96295.47;10361161;28;20438;-48
2023/04/04 04:39:51;;;;;;;23.60;13.82;;;;;;;9.53;100.00;96310.03;10361223;28;20391;-49
2023/04/04 04:44:50;;;;;;;45.42;28.77;;;;;;;9.32;100.00;96300.97;10361896;28;20104;-50
2023/04/04 04:49:50;;;;;;;10.57;7.60;;;;;;;9.12;100.00;96297.88;10358610;28;20044;-49
2023/04/04 04:54:50;;;;;;;12.02;8.82;;;;;;;8.98;100.00;96305.88;10361600;28;20140;-51
2023/04/04 04:59:49;;;;;;;12.02;7.65;;;;;;;8.96;100.00;96311.97;10361277;28;20065;-49
2023/04/04 05:04:48;;;;;;;9.98;7.00;;;;;;;8.85;100.00;96288.88;10361473;28;20103;-48
2023/04/04 05:09:47;;;;;;;10.45;6.78;;;;;;;9.12;100.00;96319.44;10359411;28;20112;-51
2023/04/04 05:14:46;;;;;;;9.35;7.07;;;;;;;9.25;100.00;96330.38;10361748;28;20068;-50
2023/04/04 05:19:45;;;;;;;9.50;7.03;;;;;;;9.34;100.00;96327.66;10362272;28;20037;-49
2023/04/04 05:24:44;;;;;;;11.57;8.57;;;;;;;9.20;100.00;96332.22;10360865;28;20029;-51
2023/04/04 05:29:43;;;;;;;12.35;8.65;;;;;;;9.14;100.00;96338.38;10361826;28;20506;-50
2023/04/04 05:34:42;;;;;;;16.60;11.10;;;;;;;8.72;100.00;96339.97;10365541;28;20110;-50
2023/04/04 05:39:41;;;;;;;;;;;;;;;8.21;100.00;96339.88;10364422;28;20065;-47
2023/04/04 05:44:40;;;;;;;17.65;10.75;;;;;;;7.69;100.00;96354.34;10363497;28;19917;-48
2023/04/04 05:49:39;;;;;;;18.02;10.52;;;;;;;7.17;100.00;96366.09;10364142;28;20040;-48
2023/04/04 05:54:38;;;;;;;21.63;11.35;;;;;;;6.74;100.00;96348.41;10362891;28;20406;-48
2023/04/04 05:59:37;;;;;;;23.23;12.93;;;;;;;6.72;100.00;96382.81;10367450;28;20561;-47
2023/04/04 06:04:39;;;;;;;11.25;6.05;;;;;;;6.43;100.00;96385.59;10364870;28;20497;-47
2023/04/04 06:09:38;;;;;;;12.68;6.78;;;;;;;6.14;100.00;96350.56;10365239;28;20072;-49
2023/04/04 06:14:37;;;;;;;8.27;4.30;;;;;;;6.11;100.00;96373.78;10373957;28;20063;-50
2023/04/04 06:19:36;;;;;;;2.63;2.00;;;;;;;5.91;100.00;96415.94;10375429;28;20100;-47
2023/04/04 06:24:35;;;;;;;2.00;1.48;;;;;;;5.76;100.00;96419.41;10372705;28;20111;-47
2023/04/04 06:29:34;;;;;;;5.90;2.80;;;;;;;5.69;100.00;96428.00;10371715;28;20036;-49
2023/04/04 06:34:33;;;;;;;2.13;1.40;;;;;;;5.52;100.00;96433.22;10406095;28;20031;-48
2023/04/04 06:39:33;;;;;;;3.35;1.90;;;;;;;5.64;100.00;96449.47;10376372;28;20474;-50
2023/04/04 06:44:32;;;;;;;2.47;1.65;;;;;;;5.62;100.00;96456.34;10399613;28;20056;-49
2023/04/04 06:49:32;;;;;;;3.33;1.85;;;;;;;5.60;100.00;96458.06;10400566;28;20746;-48
2023/04/04 06:54:32;;;;;;;2.70;1.95;;;;;;;5.69;100.00;96464.03;10368171;28;20083;-49
2023/04/04 06:59:31;;;;;;;3.35;1.98;;;;;;;5.91;100.00;96476.88;10367887;28;20853;-50
2023/04/04 07:04:33;;;;;;;3.25;2.05;;;;;;;6.06;100.00;96491.41;10368462;28;20072;-48
2023/04/04 07:09:32;;;;;;;2.97;1.63;;;;;;;6.11;100.00;96499.97;10367983;28;20075;-47
2023/04/04 07:14:31;;;;;;;6.10;3.13;;;;;;;5.61;100.00;96467.53;10367739;28;20117;-48
2023/04/04 07:19:30;;;;;;;55.55;23.83;;;;;;;5.99;100.00;96513.75;10367451;28;20071;-48
2023/04/04 07:24:29;;;;;;;9.05;5.05;;;;;;;6.26;100.00;96525.69;10373271;28;20041;-48
2023/04/04 07:29:28;;;;;;;2.70;1.55;;;;;;;5.87;100.00;96516.34;10381960;28;20076;-49
2023/04/04 07:34:28;;;;;;;6.18;3.85;;;;;;;4.53;100.00;96320.22;10398419;28;20036;-48
2023/04/04 07:39:27;;;;;;;16.05;8.80;;;;;;;5.74;100.00;96543.81;10397001;28;20120;-49
2023/04/04 07:44:26;;;;;;;19.42;10.65;;;;;;;5.78;100.00;96545.53;10374852;28;20032;-48
2023/04/04 07:49:25;;;;;;;8.43;5.18;;;;;;;5.69;100.00;96558.41;10366597;28;20510;-48
2023/04/04 07:54:24;;;;;;;11.27;6.13;;;;;;;5.51;100.00;96546.44;10364164;28;20493;-47
2023/04/04 07:59:23;;;;;;;11.30;5.65;;;;;;;5.42;100.00;96556.75;10365688;28;20772;-48
2023/04/04 08:04:22;;;;;;;5.65;3.90;;;;;;;5.59;100.00;96555.00;10362977;28;20162;-49
2023/04/04 08:09:21;;;;;;;9.55;4.60;;;;;;;5.57;100.00;96564.44;10370948;28;20707;-48
2023/04/04 08:14:20;;;;;;;4.07;3.13;;;;;;;5.85;100.00;96570.41;10362763;28;20122;-50
2023/04/04 08:19:20;;;;;;;5.10;3.10;;;;;;;6.12;100.00;96577.25;10363183;28;20124;-48
2023/04/04 08:24:21;;;;;;;;;;;;;;;6.06;100.00;96591.84;10364651;28;20089;-49
2023/04/04 08:29:20;;;;;;;5.10;2.67;;;;;;;6.10;100.00;96589.25;10343579;28;20437;-48
2023/04/04 08:34:19;;;;;;;3.55;2.30;;;;;;;5.89;100.00;96602.19;10390307;28;20067;-48
2023/04/04 08:39:18;;;;;;;4.13;2.50;;;;;;;6.05;100.00;96601.28;10361216;28;20120;-49
2023/04/04 08:44:21;;;;;;;3.42;2.42;;;;;;;6.01;100.00;96601.31;10362218;28;20108;-51
2023/04/04 08:49:22;;;;;;;4.40;2.30;;;;;;;6.02;100.00;96605.56;10359577;28;20578;-48
2023/04/04 08:54:24;;;;;;;6.25;3.22;;;;;;;5.80;100.00;96590.16;10359191;28;20625;-49
2023/04/04 08:59:23;;;;;;;4.07;2.08;;;;;;;6.02;100.00;96621.03;10362770;28;20705;-51
2023/04/04 09:04:23;;;;;;;2.70;1.80;;;;;;;6.07;100.00;96624.44;10354524;28;20198;-49
2023/04/04 09:09:23;;;;;;;3.13;2.00;;;;;;;6.00;100.00;96633.03;10374695;28;20120;-49
2023/04/04 09:14:24;;;;;;;3.97;2.95;;;;;;;5.81;100.00;96638.19;10358342;28;20131;-47
2023/04/04 09:19:23;;;;;;;3.03;1.80;;;;;;;5.63;100.00;96643.38;10379503;28;20469;-49
2023/04/04 09:24:22;;;;;;;4.28;2.10;;;;;;;5.73;100.00;96645.09;10379801;28;20521;-48
2023/04/04 09:29:21;;;;;;;3.97;2.08;;;;;;;5.83;100.00;96646.78;10363878;28;20426;-51
2023/04/04 09:34:20;;;;;;;3.78;2.10;;;;;;;6.11;100.00;96652.78;10363325;28;20123;-48
2023/04/04 09:39:21;;;;;;;3.78;2.53;;;;;;;6.30;100.00;96656.19;10369033;28;20722;-50
2023/04/04 09:44:23;;;;;;;6.32;3.40;;;;;;;6.39;100.00;96627.81;10366455;28;20127;-50
2023/04/04 09:49:22;;;;;;;4.07;2.30;;;;;;;6.53;100.00;96663.00;10389831;28;20064;-50
2023/04/04 09:54:22;;;;;;;7.72;4.30;;;;;;;6.66;100.00;96667.28;10383904;28;20116;-51
2023/04/04 09:59:23;;;;;;;4.05;2.40;;;;;;;6.55;100.00;96666.44;10367445;28;20116;-51
2023/04/04 10:04:25;;;;;;;5.55;3.28;;;;;;;6.24;100.00;96679.38;10357051;28;20076;-50
2023/04/04 10:09:24;;;;;;;3.70;2.17;;;;;;;6.18;100.00;96679.38;10368253;28;20076;-51
2023/04/04 10:14:33;;;;;;;3.03;1.80;;;;;;;6.39;100.00;96681.06;10371266;28;20934;-50
2023/04/04 10:19:36;;;;;;;1.95;1.85;;;;;;;6.44;100.00;96681.06;10368958;28;20108;-51
2023/04/04 10:24:35;;;;;;;5.25;2.80;;;;;;;6.30;100.00;96694.81;10400019;28;20462;-49
2023/04/04 10:29:34;;;;;;;3.00;2.10;;;;;;;6.55;100.00;96705.09;10368338;28;20088;-51
2023/04/04 10:34:46;;;;;;;;;;;;;;;6.78;100.00;96698.16;10367712;28;20068;-50
2023/04/04 10:40:00;;;;;;;6.03;3.75;;;;;;;6.49;100.00;96648.41;10367795;28;20034;-50
2023/04/04 10:45:01;;;;;;;7.57;4.20;;;;;;;6.38;100.00;96656.19;10367223;28;20139;-49
2023/04/04 10:50:01;;;;;;;11.27;6.00;;;;;;;6.81;99.84;96703.31;10368469;28;20055;-49
2023/04/04 10:55:05;;;;;;;6.85;4.43;;;;;;;6.79;100.00;96692.13;10398177;28;20065;-51
2023/04/04 11:00:12;;;;;;;10.80;5.85;;;;;;;6.79;100.00;96727.38;10393870;28;20083;-50
2023/04/04 11:05:16;;;;;;;7.65;4.80;;;;;;;6.49;99.17;96715.41;10366978;28;20156;-49
2023/04/04 11:10:21;;;;;;;5.60;3.72;;;;;;;6.69;100.00;96723.97;10367063;28;20087;-52
2023/04/04 11:15:21;;;;;;;3.30;1.33;;;;;;;6.49;97.69;96718.00;10367081;28;20120;-50
2023/04/04 11:20:34;;;;;;;3.45;2.30;;;;;;;6.67;99.85;96736.00;10367293;28;20077;-50
2023/04/04 11:25:38;;;;;;;5.43;2.65;;;;;;;6.33;99.78;96705.16;10365788;28;20064;-50
2023/04/04 11:30:48;;;;;;;5.28;3.53;;;;;;;6.65;99.28;96744.59;10366539;28;20075;-52
2023/04/04 11:35:49;;;;;;;6.55;3.72;;;;;;;6.82;98.64;96741.13;10374732;28;20127;-51
2023/04/04 11:40:55;;;;;;;4.32;2.28;;;;;;;6.60;98.95;96739.47;10393311;28;20124;-52
2023/04/04 11:46:05;;;;;;;4.07;2.88;;;;;;;6.50;99.24;96745.50;10367301;28;20064;-52
2023/04/04 11:51:05;;;;;;;2.70;2.00;;;;;;;6.48;98.62;96749.78;10391323;28;20072;-52
2023/04/04 11:56:04;;;;;;;3.42;2.05;;;;;;;6.33;98.88;96750.69;10363640;28;20085;-51
2023/04/04 12:01:04;;;;;;;3.47;2.63;;;;;;;6.27;97.81;96722.31;10362813;28;20134;-50
2023/04/04 12:06:03;;;;;;;;;;;;;;;6.48;99.31;96742.91;10364469;28;20065;-52
2023/04/04 12:11:10;;;;;;;3.05;2.17;;;;;;;6.11;98.40;96755.81;10363804;28;19927;-52
2023/04/04 12:16:10;;;;;;;2.55;1.92;;;;;;;6.00;97.34;96751.50;10363908;28;20910;-51
2023/04/04 12:21:09;;;;;;;5.72;3.20;;;;;;;5.99;98.78;96753.22;10363415;28;20151;-49
2023/04/04 12:26:10;;;;;;;2.38;2.10;;;;;;;6.14;100.00;96772.97;10364715;28;20060;-51
2023/04/04 12:31:11;;;;;;;5.00;3.03;;;;;;;6.08;99.13;96766.09;10355863;28;20136;-51
2023/04/04 12:36:12;;;;;;;2.20;2.00;;;;;;;6.21;100.00;96767.00;10359178;28;20119;-51
2023/04/04 12:41:16;;;;;;;4.03;2.90;;;;;;;6.20;98.83;96752.38;10360693;28;20136;-51
2023/04/04 12:46:16;;;;;;;4.60;3.10;;;;;;;6.51;100.00;96776.41;10361718;28;20077;-49
2023/04/04 12:51:17;;;;;;;7.65;4.50;;;;;;;6.60;98.73;96757.50;10362383;28;20068;-51
2023/04/04 12:56:16;;;;;;;5.93;3.63;;;;;;;6.32;96.63;96766.97;10363438;28;20120;-50
2023/04/04 13:01:18;;;;;;;5.15;3.70;;;;;;;6.39;98.06;96784.16;10363011;28;20039;-50
2023/04/04 13:06:18;;;;;;;9.10;5.63;;;;;;;6.54;99.51;96786.72;10362811;28;20072;-51
2023/04/04 13:11:18;;;;;;;5.10;3.75;;;;;;;6.58;99.07;96795.31;10360977;28;20542;-49
2023/04/04 13:16:32;;;;;;;4.65;2.72;;;;;;;6.46;96.83;96795.31;10361708;28;20072;-51
2023/04/04 13:21:33;;;;;;;8.10;5.13;;;;;;;6.46;98.44;96798.75;10358873;28;20121;-50
2023/04/04 13:26:32;;;;;;;8.38;6.05;;;;;;;6.68;97.65;96809.94;10363057;28;20067;-49
2023/04/04 13:31:31;;;;;;;9.38;5.03;;;;;;;6.46;94.86;96815.94;10367995;28;20064;-51
2023/04/04 13:36:30;;;;;;;6.80;4.45;;;;;;;6.53;97.85;96825.38;10369578;28;20033;-49
2023/04/04 13:41:29;;;;;;;10.38;6.15;;;;;;;6.34;96.79;96827.09;10370441;28;20032;-50
2023/04/04 13:46:28;;;;;;;21.65;11.02;;;;;;;6.34;96.21;96835.69;10369330;28;20143;-51
2023/04/04 13:51:27;;;;;;;7.78;4.68;;;;;;;6.40;97.32;96838.28;10367181;28;20522;-50
2023/04/04 13:56:26;;;;;;;7.10;4.43;;;;;;;6.56;96.07;96846.88;10367774;28;20475;-51
2023/04/04 14:01:26;;;;;;;5.63;3.75;;;;;;;6.44;94.32;96849.44;10368613;28;20095;-51
2023/04/04 14:06:25;;;;;;;6.65;5.05;;;;;;;6.55;97.73;96852.03;10368743;28;20451;-52
2023/04/04 14:11:29;;;;;;;24.67;16.35;;;;;;;6.74;97.62;96856.31;10369045;28;20072;-51
2023/04/04 14:16:28;;;;;;;13.93;9.68;;;;;;;6.49;95.41;96867.47;10369603;28;20541;-51
2023/04/04 14:21:27;;;;;;;10.68;7.20;;;;;;;6.27;92.44;96872.59;10369216;28;20553;-51
2023/04/04 14:26:26;;;;;;;6.70;4.10;;;;;;;5.87;94.43;96869.94;10368960;28;20104;-49
2023/04/04 14:31:25;;;;;;;10.60;7.80;;;;;;;5.63;94.96;96891.31;10369359;28;20565;-50
2023/04/04 14:36:24;;;;;;;10.55;6.20;;;;;;;5.52;95.37;96891.22;10351334;28;20589;-52
2023/04/04 14:41:23;;;;;;;7.45;4.53;;;;;;;5.49;95.67;96896.38;10368219;28;20908;-49
2023/04/04 14:46:23;;;;;;;9.38;5.82;;;;;;;5.15;96.15;96905.59;10392500;28;20526;-51
2023/04/04 14:51:22;;;;;;;13.18;7.22;;;;;;;5.10;95.38;96910.72;10368047;28;20469;-49
2023/04/04 14:56:21;;;;;;;16.33;8.45;;;;;;;4.85;97.51;96929.34;10368551;28;20534;-49
2023/04/04 15:01:21;;;;;;;10.80;6.43;;;;;;;4.92;97.26;96898.56;10368609;28;20036;-49
2023/04/04 15:06:20;;;;;;;5.28;3.55;;;;;;;4.99;95.94;96938.06;10366966;28;20482;-50
2023/04/04 15:11:19;;;;;;;8.52;5.10;;;;;;;4.76;96.76;96930.16;10366141;28;20087;-49
2023/04/04 15:16:18;;;;;;;7.38;5.82;;;;;;;4.77;96.51;96934.41;10366703;28;20037;-51
2023/04/04 15:21:17;;;;;;;5.57;4.40;;;;;;;4.69;96.40;96944.66;10366073;28;20080;-50
2023/04/04 15:26:16;;;;;;;9.48;6.63;;;;;;;4.78;96.93;96954.13;10366527;28;20028;-50
2023/04/04 15:31:15;;;;;;;5.78;4.57;;;;;;;4.63;97.11;96964.28;10364275;28;20132;-49
2023/04/04 15:36:14;;;;;;;7.75;4.30;;;;;;;4.27;97.99;96966.50;10393152;28;20652;-51
2023/04/04 15:41:13;;;;;;;8.85;4.70;;;;;;;4.13;98.86;96987.69;10365943;28;20575;-51
2023/04/04 15:46:12;;;;;;;7.50;5.03;;;;;;;4.13;98.85;96988.59;10363610;28;20060;-50
2023/04/04 15:51:11;;;;;;;5.93;4.65;;;;;;;4.08;98.56;96998.81;10355911;28;20103;-50
2023/04/04 15:56:10;;;;;;;8.73;5.07;;;;;;;4.03;97.88;97007.25;10365003;28;20120;-51
2023/04/04 16:01:09;;;;;;;7.22;4.55;;;;;;;4.15;98.56;97022.84;10364438;28;20035;-51
2023/04/04 16:06:11;;;;;;;6.63;4.63;;;;;;;4.12;97.33;97027.91;10361220;28;20046;-50
2023/04/04 16:11:10;;;;;;;11.93;7.88;;;;;;;4.04;98.67;97038.09;10373086;28;20064;-49
2023/04/04 16:16:09;;;;;;;5.75;4.07;;;;;;;3.91;98.79;97059.31;10365057;28;20056;-49
2023/04/04 16:21:08;;;;;;;10.10;7.60;;;;;;;3.96;98.75;97054.25;10383620;28;20839;-49
2023/04/04 16:26:08;;;;;;;8.50;5.60;;;;;;;3.60;99.40;97052.88;10358002;28;20061;-50
2023/04/04 16:31:07;;;;;;;8.02;6.43;;;;;;;3.91;99.47;97053.31;10362556;28;20068;-49
2023/04/04 16:36:06;;;;;;;9.40;6.40;;;;;;;3.96;98.58;97052.53;10362712;28;20076;-50
2023/04/04 16:41:05;;;;;;;;;;;;;;;3.78;98.28;97060.84;10363701;28;20072;-49
2023/04/04 16:46:04;;;;;;;16.65;9.60;;;;;;;3.86;98.47;97066.94;10364888;28;19920;-50
2023/04/04 16:51:03;;;;;;;12.30;9.57;;;;;;;3.81;98.66;97063.44;10400176;28;20067;-50
2023/04/04 16:56:02;;;;;;;7.68;6.20;;;;;;;3.74;97.42;97065.91;10360404;28;20068;-51
2023/04/04 17:01:01;;;;;;;7.47;5.53;;;;;;;3.54;97.25;97065.59;10356370;28;20220;-49
2023/04/04 17:06:00;;;;;;;9.18;6.05;;;;;;;3.47;97.47;97081.72;10374477;28;20037;-49
2023/04/04 17:10:59;;;;;;;13.52;9.85;;;;;;;3.51;97.57;97094.63;10359243;28;20048;-51
2023/04/04 17:15:58;;;;;;;8.57;6.38;;;;;;;3.60;97.01;97101.63;10382559;28;20052;-50
2023/04/04 17:20:57;;;;;;;12.05;9.27;;;;;;;3.44;97.15;97092.81;10374835;28;20120;-49
2023/04/04 17:25:56;;;;;;;10.27;8.55;;;;;;;3.50;98.01;97110.88;10357479;28;20039;-51
2023/04/04 17:30:57;;;;;;;10.60;7.53;;;;;;;3.35;97.25;97119.16;10358305;28;20117;-51
2023/04/04 17:35:56;;;;;;;10.25;7.43;;;;;;;3.42;97.54;97126.16;10357498;28;20128;-51
2023/04/04 17:40:59;;;;;;;9.90;4.35;;;;;;;2.95;98.81;97143.22;10357417;28;20124;-51
2023/04/04 17:45:59;;;;;;;14.50;10.27;;;;;;;2.71;100.00;97123.13;10356530;28;20120;-50
2023/04/04 17:50:58;;;;;;;14.40;11.30;;;;;;;2.63;100.00;97129.78;10359354;28;20076;-48
2023/04/04 17:55:57;;;;;;;;;;;;;;;2.81;99.96;97159.19;10359530;28;20061;-49
2023/04/04 18:00:57;;;;;;;11.15;8.50;;;;;;;2.91;100.00;97169.63;10358413;28;19987;-49
2023/04/04 18:05:56;;;;;;;11.30;7.38;;;;;;;2.74;100.00;97185.53;10358982;28;20490;-52
2023/04/04 18:10:56;;;;;;;;;;;;;;;2.75;100.00;97183.84;10360727;28;20124;-51
2023/04/04 18:15:54;;;;;;;11.47;8.60;;;;;;;2.67;100.00;97196.47;10367259;28;20008;-49
2023/04/04 18:20:54;;;;;;;12.52;9.35;;;;;;;2.74;100.00;97193.22;10366100;28;20033;-52
2023/04/04 18:25:53;;;;;;;13.73;9.52;;;;;;;2.85;100.00;97198.56;10364630;28;20119;-51
2023/04/04 18:30:52;;;;;;;13.70;10.35;;;;;;;2.81;99.60;97197.63;10367470;28;20073;-52
2023/04/04 18:35:52;;;;;;;17.85;11.70;;;;;;;2.86;99.27;97212.22;10360526;28;20167;-51
2023/04/04 18:40:51;;;;;;;15.40;10.50;;;;;;;2.87;98.92;97219.97;10361805;28;20529;-49
2023/04/04 18:45:52;;;;;;;14.43;10.85;;;;;;;2.96;99.59;97220.16;10361065;28;20064;-50
2023/04/04 18:50:51;;;;;;;12.52;9.32;;;;;;;2.82;98.70;97219.00;10363081;28;20075;-50
2023/04/04 18:55:53;;;;;;;11.43;8.15;;;;;;;2.67;98.15;97222.09;10358276;28;20028;-50
2023/04/04 19:00:54;;;;;;;15.80;11.95;;;;;;;2.75;98.01;97232.53;10363350;28;20526;-48
2023/04/04 19:05:54;;;;;;;15.23;11.60;;;;;;;2.94;98.63;97220.97;10360314;28;20120;-49
2023/04/04 19:10:53;;;;;;;18.38;12.93;;;;;;;3.15;97.55;97220.53;10346117;28;20498;-50
2023/04/04 19:15:52;;;;;;;13.95;9.82;;;;;;;3.14;96.00;97226.47;10361325;28;20411;-48
2023/04/04 19:20:51;;;;;;;16.05;10.55;;;;;;;3.13;96.23;97225.59;10362037;28;20417;-49
2023/04/04 19:25:50;;;;;;;22.33;14.82;;;;;;;3.25;97.10;97231.81;10359450;28;20043;-48
2023/04/04 19:30:51;;;;;;;15.13;9.95;;;;;;;3.22;93.93;97232.63;10362223;28;20052;-48
2023/04/04 19:35:54;;;;;;;12.65;9.52;;;;;;;3.23;94.76;97236.91;10360547;28;20161;-49
2023/04/04 19:41:07;;;;;;;9.15;6.40;;;;;;;3.18;94.41;97238.50;10305968;28;20113;-48
2023/04/04 19:46:08;;;;;;;16.50;11.77;;;;;;;3.07;94.72;97211.81;10302445;28;20517;-49
2023/04/04 19:51:10;;;;;;;13.52;9.38;;;;;;;3.32;94.24;97228.53;10292149;28;20073;-48
2023/04/04 19:56:11;;;;;;;13.70;9.23;;;;;;;3.34;94.95;97245.66;10328471;28;20072;-48
2023/04/04 20:01:16;;;;;;;13.52;9.60;;;;;;;3.36;95.00;97207.25;10340615;28;20116;-50
2023/04/04 20:06:27;;;;;;;18.10;11.63;;;;;;;3.49;94.47;97236.53;10339484;28;20116;-48
2023/04/04 20:11:35;;;;;;;14.00;8.73;;;;;;;3.44;92.85;97224.47;10320110;28;20057;-48
2023/04/04 20:16:34;;;;;;;12.13;9.05;;;;;;;3.41;92.18;97221.00;10298094;28;20692;-49
2023/04/04 20:21:34;;;;;;;10.93;8.05;;;;;;;3.21;91.15;97218.94;10329527;28;20068;-49
2023/04/04 20:26:57;;;;;;;11.95;9.63;;;;;;;3.00;90.99;97213.38;10357791;28;20120;-50
2023/04/04 20:32:02;;;;;;;11.75;7.68;;;;;;;2.87;91.04;97212.28;10361135;28;20580;-51
2023/04/04 20:37:04;;;;;;;17.45;12.27;;;;;;;2.93;90.98;97214.97;10389152;28;20131;-51
2023/04/04 20:42:15;;;;;;;18.10;12.52;;;;;;;3.00;91.22;97224.50;10373329;28;20578;-50
2023/04/04 20:47:39;;;;;;;32.90;18.83;;;;;;;3.23;93.66;97221.50;10358401;28;20477;-52
2023/04/04 20:52:38;;;;;;;14.00;10.15;;;;;;;3.43;91.24;97227.91;10395499;28;20068;-49
2023/04/04 20:57:37;;;;;;;12.70;8.63;;;;;;;3.39;92.18;97223.53;10356004;28;20037;-49
2023/04/04 21:02:36;;;;;;;;;;;;;;;3.40;91.93;97220.16;10396379;28;20075;-50
2023/04/04 21:07:41;;;;;;;15.60;10.63;;;;;;;3.57;92.58;97232.41;10355064;28;19913;-49
2023/04/04 21:12:40;;;;;;;13.20;9.05;;;;;;;3.63;90.92;97224.81;10355387;28;20073;-51
2023/04/04 21:17:39;;;;;;;18.08;12.57;;;;;;;3.70;91.25;97216.38;10347909;28;20059;-48
2023/04/04 21:22:37;;;;;;;14.95;10.95;;;;;;;3.77;91.59;97220.78;10339811;28;20092;-50
2023/04/04 21:27:36;;;;;;;18.05;11.35;;;;;;;3.82;91.43;97219.19;10365326;28;20140;-49
2023/04/04 21:32:35;;;;;;;17.23;11.70;;;;;;;3.70;90.44;97213.81;10341694;28;20070;-49
2023/04/04 21:37:37;;;;;;;18.33;12.25;;;;;;;3.76;88.75;97225.91;10368503;28;20144;-49
2023/04/04 21:42:36;;;;;;;20.83;11.95;;;;;;;3.69;89.12;97231.78;10357164;28;20521;-49
2023/04/04 21:47:34;;;;;;;13.90;9.77;;;;;;;3.74;89.74;97235.28;10401414;28;20581;-49
2023/04/04 21:52:34;;;;;;;23.77;15.05;;;;;;;3.76;89.05;97231.91;10366797;28;20045;-49
2023/04/04 21:57:34;;;;;;;13.50;9.50;;;;;;;3.62;89.49;97207.69;10404665;28;20124;-48
2023/04/04 22:02:33;;;;;;;16.50;10.63;;;;;;;3.73;89.64;97241.22;10366098;28;20143;-49
2023/04/04 22:07:32;;;;;;;12.40;8.75;;;;;;;3.73;89.29;97252.38;10388026;28;20097;-51
2023/04/04 22:12:32;;;;;;;;;;;;;;;3.68;88.20;97248.84;10386079;28;20512;-49
2023/04/04 22:17:31;;;;;;;15.88;11.35;;;;;;;3.69;89.89;97248.03;10372943;28;20663;-50
2023/04/04 22:22:31;;;;;;;21.20;13.07;;;;;;;3.72;88.65;97237.81;10366624;28;20127;-49
2023/04/04 22:27:34;;;;;;;19.42;13.25;;;;;;;3.66;89.53;97245.41;10355320;28;20156;-51
2023/04/04 22:32:33;;;;;;;19.38;11.75;;;;;;;3.67;89.75;97246.28;10366782;28;20116;-49
2023/04/04 22:37:32;;;;;;;12.57;9.55;;;;;;;3.62;89.76;97208.56;10391659;28;20127;-49
2023/04/04 22:42:31;;;;;;;17.10;11.90;;;;;;;3.71;89.12;97220.69;10371028;28;20057;-51
2023/04/04 22:47:30;;;;;;;18.05;12.13;;;;;;;3.85;89.20;97239.75;10371202;28;20031;-50
2023/04/04 22:52:30;;;;;;;40.35;20.70;;;;;;;3.79;88.94;97234.50;10392392;28;20040;-49
2023/04/04 22:57:29;;;;;;;19.58;12.80;;;;;;;3.68;89.40;97225.75;10365313;28;20152;-49
2023/04/04 23:02:28;;;;;;;48.65;22.55;;;;;;;3.85;89.86;97229.50;10347256;28;20100;-49
2023/04/04 23:07:27;;;;;;;29.67;17.77;;;;;;;3.09;89.78;97099.91;10357318;28;20116;-50
2023/04/04 23:12:26;;;;;;;15.43;10.57;;;;;;;3.95;90.20;97229.66;10356095;28;20133;-49
2023/04/04 23:17:25;;;;;;;13.52;9.43;;;;;;;3.92;89.58;97227.03;10359979;28;20052;-49
2023/04/04 23:22:24;;;;;;;;;;;;;;;4.01;90.57;97238.31;10363055;28;20064;-52